Time;durP1;ratioP1;P1;durP2;ratioP2;P2;SDS_P1;SDS_P2;PMS_P1;PMS_P2;Temp;Humidity;BMP_temperature;BMP_pressure;BME280_temperature;BME280_humidity;BME280_pressure;Samples;Min_cycle;Max_cycle;Signal;HPM_P1;HPM_P2
2022/06/21 00:00:50;;;;;;;;;;;13.00;99.90;;;;;;5085381;28;19912;-61
2022/06/21 00:03:26;;;;;;;;;;;13.00;99.90;;;;;;5085913;28;19913;-61
2022/06/21 00:05:52;;;;;;;;;;;13.00;99.90;;;;;;5089787;28;19924;-63
2022/06/21 00:08:23;;;;;;;;;;;12.90;99.90;;;;;;5072902;28;19919;-62
2022/06/21 00:10:50;;;;;;;;;;;12.70;99.90;;;;;;5092053;28;19920;-60
2022/06/21 00:13:17;;;;;;;;;;;12.70;99.90;;;;;;5089180;28;20011;-61
2022/06/21 00:15:44;;;;;;;;;;;12.50;99.90;;;;;;5086701;28;19965;-61
2022/06/21 00:18:14;;;;;;;;;;;12.50;99.90;;;;;;5088171;28;20298;-61
2022/06/21 00:20:40;;;;;;;;;;;12.50;99.90;;;;;;5091500;28;19912;-63
2022/06/21 00:23:10;;;;;;;;;;;12.40;99.90;;;;;;5088312;28;20333;-61
2022/06/21 00:25:35;;;;;;;;;;;12.40;99.90;;;;;;5067087;28;20127;-61
2022/06/21 00:28:01;;;;;;;;;;;12.40;99.90;;;;;;5087710;28;19912;-61
2022/06/21 00:30:27;;;;;;;;;;;12.40;99.90;;;;;;5087874;28;20024;-61
2022/06/21 00:32:53;;;;;;;;;;;12.40;99.90;;;;;;5087041;28;20033;-62
2022/06/21 00:35:20;;;;;;;;;;;12.40;99.90;;;;;;5090673;28;19913;-62
2022/06/21 00:37:46;;;;;;;;;;;12.40;99.90;;;;;;5088199;28;20015;-61
2022/06/21 00:40:38;;;;;;;;;;;12.30;99.90;;;;;;5089110;28;19958;-62
2022/06/21 00:43:04;;;;;;;;;;;12.20;99.90;;;;;;5085166;28;19916;-62
2022/06/21 00:45:32;;;;;;;;;;;12.20;99.90;;;;;;5086071;28;19922;-62
2022/06/21 00:48:00;;;;;;;;;;;12.20;99.90;;;;;;5088463;28;19916;-61
2022/06/21 00:50:26;;;;;;;;;;;12.10;99.90;;;;;;5087331;28;20315;-61
2022/06/21 00:52:54;;;;;;;;;;;12.20;99.90;;;;;;5091567;28;19912;-61
2022/06/21 00:55:40;;;;;;;;;;;12.30;99.90;;;;;;5090430;28;19916;-61
2022/06/21 00:58:08;;;;;;;;;;;12.30;99.90;;;;;;5085742;28;20010;-61
2022/06/21 01:00:46;;;;;;;;;;;12.20;99.90;;;;;;5089707;28;20333;-62
2022/06/21 01:03:17;;;;;;;;;;;12.10;99.90;;;;;;5092078;28;19912;-63
2022/06/21 01:05:44;;;;;;;;;;;12.10;99.90;;;;;;5088061;28;19915;-62
2022/06/21 01:08:10;;;;;;;;;;;12.10;99.90;;;;;;5072235;28;19916;-61
2022/06/21 01:10:38;;;;;;;;;;;12.10;99.90;;;;;;5087436;28;19915;-61
2022/06/21 01:13:08;;;;;;;;;;;12.00;99.90;;;;;;5089101;28;20280;-61
2022/06/21 01:15:36;;;;;;;;;;;12.00;99.90;;;;;;5086271;28;19932;-61
2022/06/21 01:18:04;;;;;;;;;;;11.80;99.90;;;;;;5087266;28;19943;-61
2022/06/21 01:20:34;;;;;;;;;;;11.80;99.90;;;;;;5089360;28;20327;-62
2022/06/21 01:23:00;;;;;;;;;;;11.80;99.90;;;;;;5087538;28;19920;-62
2022/06/21 01:25:49;;;;;;;;;;;11.60;99.90;;;;;;5091190;28;20010;-62
2022/06/21 01:28:15;;;;;;;;;;;11.70;99.90;;;;;;5093000;28;19912;-62
2022/06/21 01:30:46;;;;;;;;;;;11.70;99.90;;;;;;5093420;28;19998;-62
2022/06/21 01:33:14;;;;;;;;;;;11.60;99.90;;;;;;5093181;28;20280;-62
2022/06/21 01:35:41;;;;;;;;;;;11.50;99.90;;;;;;5093108;28;19916;-62
2022/06/21 01:38:09;;;;;;;;;;;11.50;99.90;;;;;;5090657;28;20314;-62
2022/06/21 01:40:39;;;;;;;;;;;11.40;99.90;;;;;;5087565;28;19998;-62
2022/06/21 01:43:08;;;;;;;;;;;11.30;99.90;;;;;;5090665;28;20424;-61
2022/06/21 01:45:46;;;;;;;;;;;11.30;99.90;;;;;;5090466;28;19912;-61
2022/06/21 01:48:18;;;;;;;;;;;11.30;99.90;;;;;;5089373;28;20294;-62
2022/06/21 01:50:45;;;;;;;;;;;11.20;99.90;;;;;;5067807;28;19919;-61
2022/06/21 01:53:12;;;;;;;;;;;11.20;99.90;;;;;;5088263;28;19935;-61
2022/06/21 01:55:43;;;;;;;;;;;11.20;99.90;;;;;;5092494;28;19916;-61
2022/06/21 01:58:11;;;;;;;;;;;11.10;99.90;;;;;;5090097;28;20091;-61
2022/06/21 02:00:38;;;;;;;;;;;11.10;99.90;;;;;;5089017;28;19912;-62
2022/06/21 02:03:09;;;;;;;;;;;11.20;99.90;;;;;;5090956;28;19912;-62
2022/06/21 02:05:38;;;;;;;;;;;11.30;99.90;;;;;;5073523;28;19912;-62
2022/06/21 02:08:13;;;;;;;;;;;11.30;99.90;;;;;;5090913;28;19916;-62
2022/06/21 02:10:44;;;;;;;;;;;11.30;99.90;;;;;;5088059;28;19982;-62
2022/06/21 02:13:27;;;;;;;;;;;11.30;99.90;;;;;;5071553;28;20538;-62
2022/06/21 02:15:58;;;;;;;;;;;11.30;99.90;;;;;;5091608;28;19924;-62
2022/06/21 02:18:25;;;;;;;;;;;11.20;99.90;;;;;;5089932;28;20293;-62
2022/06/21 02:21:03;;;;;;;;;;;11.10;99.90;;;;;;5090436;28;19919;-62
2022/06/21 02:23:29;;;;;;;;;;;10.90;99.90;;;;;;5092765;28;19919;-60
2022/06/21 02:25:55;;;;;;;;;;;10.80;99.90;;;;;;5092696;28;19912;-62
2022/06/21 02:28:21;;;;;;;;;;;10.80;99.90;;;;;;5092532;28;20007;-61
2022/06/21 02:30:48;;;;;;;;;;;10.80;99.90;;;;;;5089437;28;19920;-62
2022/06/21 02:33:17;;;;;;;;;;;10.80;99.90;;;;;;5086969;28;20385;-61
2022/06/21 02:35:45;;;;;;;;;;;10.70;99.90;;;;;;5073710;28;19916;-61
2022/06/21 02:38:13;;;;;;;;;;;10.60;99.90;;;;;;5089975;28;19920;-60
2022/06/21 02:40:44;;;;;;;;;;;10.60;99.90;;;;;;5073456;28;20362;-61
2022/06/21 02:43:21;;;;;;;;;;;10.70;99.90;;;;;;5074092;28;19983;-60
2022/06/21 02:45:49;;;;;;;;;;;10.80;99.90;;;;;;5086145;28;20439;-60
2022/06/21 02:48:18;;;;;;;;;;;10.80;99.90;;;;;;5089400;28;19916;-61
2022/06/21 02:51:05;;;;;;;;;;;10.70;99.90;;;;;;5089178;28;19968;-62
2022/06/21 02:53:45;;;;;;;;;;;10.60;99.90;;;;;;5072933;28;19920;-62
2022/06/21 02:56:17;;;;;;;;;;;10.60;99.90;;;;;;5089131;28;19926;-62
2022/06/21 02:58:45;;;;;;;;;;;10.50;99.90;;;;;;5089059;28;20041;-61
2022/06/21 03:01:21;;;;;;;;;;;10.60;99.90;;;;;;5087615;28;20293;-61
2022/06/21 03:03:48;;;;;;;;;;;10.50;99.90;;;;;;5076269;28;19968;-61
2022/06/21 03:06:16;;;;;;;;;;;10.40;99.90;;;;;;5089487;28;20025;-61
2022/06/21 03:09:08;;;;;;;;;;;10.40;99.90;;;;;;5091593;28;19939;-61
2022/06/21 03:11:39;;;;;;;;;;;10.40;99.90;;;;;;5085351;28;19912;-61
2022/06/21 03:14:06;;;;;;;;;;;10.30;99.90;;;;;;5090544;28;19922;-61
2022/06/21 03:16:31;;;;;;;;;;;10.40;99.90;;;;;;5088809;28;19924;-61
2022/06/21 03:18:59;;;;;;;;;;;10.20;99.90;;;;;;5085591;28;19916;-61
2022/06/21 03:21:29;;;;;;;;;;;10.30;99.90;;;;;;5071817;28;19912;-62
2022/06/21 03:23:56;;;;;;;;;;;10.20;99.90;;;;;;5088886;28;19957;-61
2022/06/21 03:26:21;;;;;;;;;;;10.20;99.90;;;;;;5090363;28;19912;-61
2022/06/21 03:28:47;;;;;;;;;;;10.10;99.90;;;;;;5092745;28;20250;-61
2022/06/21 03:31:19;;;;;;;;;;;10.10;99.90;;;;;;5089976;28;19912;-60
2022/06/21 03:33:46;;;;;;;;;;;10.10;99.90;;;;;;5089043;28;19916;-61
2022/06/21 03:36:13;;;;;;;;;;;10.00;99.90;;;;;;5091731;28;19924;-61
2022/06/21 03:38:40;;;;;;;;;;;10.10;99.90;;;;;;5088988;28;19912;-61
2022/06/21 03:43:58;;;;;;;;;;;10.10;99.90;;;;;;5087322;28;19954;-61
2022/06/21 03:46:27;;;;;;;;;;;10.00;99.90;;;;;;5087820;28;19923;-62
2022/06/21 03:49:04;;;;;;;;;;;10.00;99.90;;;;;;5088540;28;19916;-62
2022/06/21 03:51:34;;;;;;;;;;;10.00;99.90;;;;;;5090506;28;20160;-62
2022/06/21 03:54:03;;;;;;;;;;;9.90;99.90;;;;;;5093364;28;20146;-62
2022/06/21 03:56:32;;;;;;;;;;;9.80;99.90;;;;;;5091304;28;19974;-62
2022/06/21 03:59:10;;;;;;;;;;;9.80;99.90;;;;;;5087348;28;19935;-62
2022/06/21 04:01:51;;;;;;;;;;;9.80;99.90;;;;;;5089318;28;19912;-63
2022/06/21 04:04:17;;;;;;;;;;;9.80;99.90;;;;;;5071549;28;19912;-62
2022/06/21 04:06:58;;;;;;;;;;;9.90;99.90;;;;;;5090097;28;19961;-61
2022/06/21 04:09:44;;;;;;;;;;;9.80;99.90;;;;;;5072528;28;20389;-62
2022/06/21 04:12:25;;;;;;;;;;;9.80;99.90;;;;;;5049923;28;19916;-61
2022/06/21 04:14:56;;;;;;;;;;;9.80;99.90;;;;;;5086767;28;20313;-62
2022/06/21 04:17:48;;;;;;;;;;;9.70;99.90;;;;;;5087378;28;20389;-64
2022/06/21 04:20:22;;;;;;;;;;;9.70;99.90;;;;;;5049002;28;20650;-61
2022/06/21 04:22:51;;;;;;;;;;;9.60;99.90;;;;;;5072538;28;19989;-61
2022/06/21 04:25:16;;;;;;;;;;;9.60;99.90;;;;;;5087582;28;19972;-62
2022/06/21 04:27:46;;;;;;;;;;;9.60;99.90;;;;;;5087345;28;20341;-62
2022/06/21 04:30:25;;;;;;;;;;;9.60;99.90;;;;;;5090020;28;20357;-61
2022/06/21 04:32:54;;;;;;;;;;;9.60;99.90;;;;;;5089134;28;19928;-61
2022/06/21 04:35:30;;;;;;;;;;;9.60;99.90;;;;;;5090125;28;20349;-60
2022/06/21 04:38:04;;;;;;;;;;;9.70;99.90;;;;;;5065287;28;19917;-62
2022/06/21 04:40:29;;;;;;;;;;;9.70;99.90;;;;;;5070856;28;19919;-62
2022/06/21 04:42:55;;;;;;;;;;;9.70;99.90;;;;;;5089795;28;19912;-61
2022/06/21 04:45:27;;;;;;;;;;;9.70;99.90;;;;;;5087591;28;19912;-62
2022/06/21 04:47:59;;;;;;;;;;;9.70;99.90;;;;;;5084714;28;19916;-62
2022/06/21 04:50:46;;;;;;;;;;;9.70;99.90;;;;;;5085779;28;19923;-61
2022/06/21 04:53:16;;;;;;;;;;;9.80;99.90;;;;;;5083672;28;19951;-62
2022/06/21 04:55:45;;;;;;;;;;;9.90;99.90;;;;;;5090268;28;19924;-61
2022/06/21 04:58:11;;;;;;;;;;;9.90;99.90;;;;;;5073561;28;19931;-61
2022/06/21 05:00:37;;;;;;;;;;;9.80;99.90;;;;;;5092969;28;19912;-61
2022/06/21 05:03:26;;;;;;;;;;;9.80;99.90;;;;;;5092031;28;19991;-62
2022/06/21 05:05:51;;;;;;;;;;;9.90;99.90;;;;;;5091610;28;19912;-62
2022/06/21 05:08:20;;;;;;;;;;;10.00;99.90;;;;;;5089258;28;19920;-62
2022/06/21 05:10:47;;;;;;;;;;;10.10;99.90;;;;;;5072212;28;19912;-62
2022/06/21 05:13:33;;;;;;;;;;;10.00;99.90;;;;;;5089251;28;20277;-62
2022/06/21 05:16:01;;;;;;;;;;;10.10;99.90;;;;;;5090152;28;19939;-62
2022/06/21 05:18:30;;;;;;;;;;;10.10;99.90;;;;;;5089374;28;19912;-61
2022/06/21 05:21:00;;;;;;;;;;;10.20;99.90;;;;;;5093076;28;19919;-61
2022/06/21 05:23:25;;;;;;;;;;;10.50;99.90;;;;;;5074976;28;19912;-61
2022/06/21 05:25:52;;;;;;;;;;;10.60;99.90;;;;;;5074368;28;19918;-62
2022/06/21 05:28:26;;;;;;;;;;;10.60;99.90;;;;;;5074863;28;20259;-62
2022/06/21 05:30:54;;;;;;;;;;;10.70;99.90;;;;;;5091537;28;19920;-62
2022/06/21 05:33:24;;;;;;;;;;;10.70;99.90;;;;;;5088442;28;19954;-62
2022/06/21 05:35:50;;;;;;;;;;;10.70;99.90;;;;;;5088815;28;19944;-62
2022/06/21 05:38:21;;;;;;;;;;;10.70;99.90;;;;;;5091516;28;20337;-62
2022/06/21 05:40:50;;;;;;;;;;;10.80;99.90;;;;;;5092868;28;20385;-62
2022/06/21 05:43:20;;;;;;;;;;;10.90;99.90;;;;;;5093242;28;19919;-61
2022/06/21 05:46:06;;;;;;;;;;;11.10;99.90;;;;;;5095848;28;19915;-62
2022/06/21 05:48:34;;;;;;;;;;;11.10;99.90;;;;;;5077985;28;19938;-62
2022/06/21 05:51:01;;;;;;;;;;;11.10;99.90;;;;;;5089184;28;20422;-61
2022/06/21 05:53:38;;;;;;;;;;;11.10;99.90;;;;;;5092062;28;19999;-62
2022/06/21 05:56:06;;;;;;;;;;;11.20;99.90;;;;;;5087309;28;19936;-63
2022/06/21 05:58:35;;;;;;;;;;;11.30;99.90;;;;;;5092277;28;19956;-62
2022/06/21 06:01:07;;;;;;;;;;;11.30;99.90;;;;;;5086255;28;19912;-63
2022/06/21 06:03:52;;;;;;;;;;;11.30;99.90;;;;;;5088252;28;20290;-62
2022/06/21 06:06:18;;;;;;;;;;;11.50;99.90;;;;;;5090668;28;19943;-62
2022/06/21 06:08:57;;;;;;;;;;;11.50;99.90;;;;;;5090920;28;19951;-62
2022/06/21 06:11:24;;;;;;;;;;;11.50;99.90;;;;;;5089306;28;19923;-60
2022/06/21 06:13:51;;;;;;;;;;;11.60;99.90;;;;;;5090552;28;19992;-62
2022/06/21 06:16:25;;;;;;;;;;;11.80;99.90;;;;;;5091046;28;22587;-62
2022/06/21 06:19:05;;;;;;;;;;;12.00;99.90;;;;;;5088768;28;19920;-62
2022/06/21 06:22:03;;;;;;;;;;;12.10;99.90;;;;;;5092750;28;19912;-62
2022/06/21 06:24:32;;;;;;;;;;;12.20;99.90;;;;;;5036189;28;19919;-61
2022/06/21 06:26:59;;;;;;;;;;;12.20;99.90;;;;;;5091911;28;20076;-62
2022/06/21 06:29:39;;;;;;;;;;;12.20;99.90;;;;;;5089679;28;20363;-62
2022/06/21 06:32:10;;;;;;;;;;;12.40;99.90;;;;;;5090640;28;20230;-62
2022/06/21 06:34:42;;;;;;;;;;;12.40;99.90;;;;;;5092911;28;20048;-62
2022/06/21 06:37:22;;;;;;;;;;;12.60;99.90;;;;;;5095183;28;19926;-62
2022/06/21 06:39:47;;;;;;;;;;;12.70;99.90;;;;;;5085632;28;19912;-61
2022/06/21 06:42:20;;;;;;;;;;;12.80;99.90;;;;;;5091163;28;20035;-63
2022/06/21 06:44:48;;;;;;;;;;;12.90;99.90;;;;;;5094368;28;19908;-64
2022/06/21 06:47:15;;;;;;;;;;;13.10;99.90;;;;;;5095243;28;20006;-62
2022/06/21 06:49:49;;;;;;;;;;;13.20;99.90;;;;;;5094365;28;20984;-62
2022/06/21 06:52:24;;;;;;;;;;;13.50;99.90;;;;;;5087838;28;20415;-61
2022/06/21 06:55:11;;;;;;;;;;;13.60;99.90;;;;;;5082785;28;19920;-62
2022/06/21 06:57:39;;;;;;;;;;;13.70;99.90;;;;;;5089408;28;19920;-62
2022/06/21 07:00:25;;;;;;;;;;;13.80;99.90;;;;;;5082911;28;19920;-62
2022/06/21 07:02:58;;;;;;;;;;;14.00;99.90;;;;;;5081990;28;19912;-62
2022/06/21 07:05:24;;;;;;;;;;;14.10;99.90;;;;;;5087784;28;19919;-64
2022/06/21 07:07:55;;;;;;;;;;;14.20;99.90;;;;;;5071966;28;19913;-62
2022/06/21 07:10:23;;;;;;;;;;;14.40;99.90;;;;;;5089098;28;19926;-62
2022/06/21 07:12:50;;;;;;;;;;;14.50;99.90;;;;;;5087851;28;19918;-63
2022/06/21 07:15:17;;;;;;;;;;;14.60;99.90;;;;;;5088059;28;19965;-62
2022/06/21 07:17:47;;;;;;;;;;;14.80;99.90;;;;;;5067816;28;19920;-63
2022/06/21 07:20:16;;;;;;;;;;;14.80;99.90;;;;;;5066374;28;19991;-63
2022/06/21 07:22:42;;;;;;;;;;;15.00;99.90;;;;;;5089641;28;19912;-62
2022/06/21 07:25:10;;;;;;;;;;;15.00;99.90;;;;;;5086346;28;19912;-63
2022/06/21 07:27:36;;;;;;;;;;;15.00;99.90;;;;;;5088526;28;19912;-63
2022/06/21 07:30:07;;;;;;;;;;;15.20;99.90;;;;;;5088555;28;19912;-63
2022/06/21 07:32:36;;;;;;;;;;;15.30;99.90;;;;;;5088765;28;20281;-63
2022/06/21 07:35:06;;;;;;;;;;;15.50;99.90;;;;;;5088294;28;19915;-63
2022/06/21 07:37:43;;;;;;;;;;;15.60;99.90;;;;;;5084793;28;19961;-63
2022/06/21 07:40:08;;;;;;;;;;;15.70;99.90;;;;;;5087803;28;20421;-63
2022/06/21 07:42:42;;;;;;;;;;;15.80;99.90;;;;;;5088824;28;20008;-61
2022/06/21 07:45:14;;;;;;;;;;;15.90;99.90;;;;;;5086012;28;19912;-62
2022/06/21 07:47:42;;;;;;;;;;;16.00;99.90;;;;;;5070439;28;19912;-63
2022/06/21 07:50:11;;;;;;;;;;;16.10;99.90;;;;;;5087195;28;19962;-62
2022/06/21 07:52:42;;;;;;;;;;;16.30;99.90;;;;;;5068459;28;19916;-62
2022/06/21 07:55:16;;;;;;;;;;;16.50;99.90;;;;;;5086341;28;19920;-63
2022/06/21 07:57:52;;;;;;;;;;;16.70;99.90;;;;;;5087684;28;19916;-61
2022/06/21 08:00:19;;;;;;;;;;;16.80;99.90;;;;;;5068275;28;19916;-63
2022/06/21 08:08:48;;;;;;;;;;;17.10;99.90;;;;;;5086848;28;19919;-62
2022/06/21 08:11:18;;;;;;;;;;;17.20;99.90;;;;;;5084376;28;19912;-62
2022/06/21 08:13:47;;;;;;;;;;;17.30;99.90;;;;;;5084339;28;19912;-60
2022/06/21 08:16:12;;;;;;;;;;;17.30;99.90;;;;;;5090106;28;19928;-61
2022/06/21 08:18:42;;;;;;;;;;;17.50;99.90;;;;;;5078807;28;20305;-61
2022/06/21 08:21:16;;;;;;;;;;;17.50;99.90;;;;;;5098151;28;19920;-63
2022/06/21 08:23:49;;;;;;;;;;;17.50;99.90;;;;;;5101661;28;19912;-62
2022/06/21 08:26:37;;;;;;;;;;;17.60;99.90;;;;;;5097349;28;19975;-61
2022/06/21 08:29:10;;;;;;;;;;;17.70;99.90;;;;;;5094160;28;20181;-70
2022/06/21 08:31:38;;;;;;;;;;;18.00;99.90;;;;;;5074074;28;19912;-61
2022/06/21 08:34:18;;;;;;;;;;;18.20;99.90;;;;;;5099641;28;19941;-61
2022/06/21 08:36:52;;;;;;;;;;;18.20;99.90;;;;;;5100274;28;20381;-63
2022/06/21 08:39:44;;;;;;;;;;;18.50;99.90;;;;;;5086895;28;19923;-61
2022/06/21 08:42:22;;;;;;;;;;;18.60;99.90;;;;;;5074572;28;20032;-63
2022/06/21 08:47:58;;;;;;;;;;;18.50;99.90;;;;;;5085144;28;19965;-62
2022/06/21 08:50:33;;;;;;;;;;;18.40;99.90;;;;;;5088447;28;20336;-61
2022/06/21 08:53:14;;;;;;;;;;;18.50;99.90;;;;;;5092792;28;20004;-62
2022/06/21 08:55:44;;;;;;;;;;;18.80;99.90;;;;;;5089854;28;20341;-62
2022/06/21 08:58:22;;;;;;;;;;;18.80;99.90;;;;;;5095015;28;20111;-63
2022/06/21 09:00:52;;;;;;;;;;;18.90;99.90;;;;;;5095549;28;19912;-63
2022/06/21 09:03:20;;;;;;;;;;;18.90;99.90;;;;;;5091341;28;20037;-62
2022/06/21 09:06:04;;;;;;;;;;;19.00;99.90;;;;;;5089018;28;19958;-62
2022/06/21 09:08:48;;;;;;;;;;;19.20;99.90;;;;;;5092323;28;20369;-62
2022/06/21 09:11:17;;;;;;;;;;;19.40;99.90;;;;;;5096088;28;19947;-61
2022/06/21 09:13:42;;;;;;;;;;;19.40;99.90;;;;;;5089571;28;19923;-61
2022/06/21 09:16:19;;;;;;;;;;;19.50;99.90;;;;;;5092647;28;19920;-62
2022/06/21 09:18:54;;;;;;;;;;;19.50;99.90;;;;;;5091617;28;19941;-62
2022/06/21 09:21:31;;;;;;;;;;;19.60;99.90;;;;;;5089962;28;19927;-62
2022/06/21 09:24:15;;;;;;;;;;;19.70;99.20;;;;;;5070512;28;19920;-62
2022/06/21 09:26:44;;;;;;;;;;;19.80;97.50;;;;;;5093798;28;20341;-60
2022/06/21 09:29:23;;;;;;;;;;;19.90;96.30;;;;;;5090858;28;19912;-62
2022/06/21 09:31:54;;;;;;;;;;;19.90;96.20;;;;;;5089283;28;19920;-62
2022/06/21 09:34:28;;;;;;;;;;;19.90;94.30;;;;;;5090475;28;20262;-62
2022/06/21 09:37:01;;;;;;;;;;;20.10;94.00;;;;;;5084350;28;19924;-61
2022/06/21 09:39:53;;;;;;;;;;;20.30;94.00;;;;;;5087307;28;20278;-62
2022/06/21 09:42:29;;;;;;;;;;;20.50;93.20;;;;;;5048945;28;19956;-62
2022/06/21 09:45:13;;;;;;;;;;;20.50;91.50;;;;;;5088505;28;19919;-63
2022/06/21 09:48:05;;;;;;;;;;;20.60;91.80;;;;;;5067489;28;19908;-62
2022/06/21 09:50:49;;;;;;;;;;;20.30;93.40;;;;;;5088538;28;19916;-63
2022/06/21 09:53:24;;;;;;;;;;;20.20;93.90;;;;;;5085538;28;19912;-62
2022/06/21 09:56:08;;;;;;;;;;;20.30;93.50;;;;;;5089282;28;19959;-63
2022/06/21 09:58:54;;;;;;;;;;;20.50;92.60;;;;;;5093804;28;20341;-62
2022/06/21 10:01:38;;;;;;;;;;;20.40;93.10;;;;;;5097094;28;19931;-62
2022/06/21 10:04:33;;;;;;;;;;;20.50;92.40;;;;;;5084244;28;19964;-63
2022/06/21 10:07:08;;;;;;;;;;;20.60;92.00;;;;;;4998889;28;20573;-62
2022/06/21 10:09:44;;;;;;;;;;;20.70;91.50;;;;;;5086138;28;19969;-62
2022/06/21 10:12:09;;;;;;;;;;;20.60;90.90;;;;;;5087246;28;19919;-62
2022/06/21 10:14:38;;;;;;;;;;;20.60;91.20;;;;;;5088419;28;19920;-62
2022/06/21 10:17:03;;;;;;;;;;;20.70;91.30;;;;;;5084891;28;20003;-63
2022/06/21 10:19:42;;;;;;;;;;;20.70;91.10;;;;;;5085433;28;20007;-62
2022/06/21 10:22:20;;;;;;;;;;;20.70;91.40;;;;;;5088278;28;20437;-63
2022/06/21 10:25:18;;;;;;;;;;;20.60;90.50;;;;;;5085365;28;19912;-62
2022/06/21 10:27:46;;;;;;;;;;;20.60;88.90;;;;;;5047124;28;19921;-62
2022/06/21 10:30:17;;;;;;;;;;;20.50;89.90;;;;;;5083500;28;19924;-62
2022/06/21 10:32:52;;;;;;;;;;;20.40;87.80;;;;;;5086598;28;20094;-62
2022/06/21 10:35:29;;;;;;;;;;;20.60;88.20;;;;;;5090146;28;20015;-62
2022/06/21 10:38:04;;;;;;;;;;;20.80;89.60;;;;;;5067398;28;19942;-63
2022/06/21 10:40:41;;;;;;;;;;;21.00;88.80;;;;;;5085062;28;20430;-62
2022/06/21 10:43:25;;;;;;;;;;;21.00;88.20;;;;;;5068547;28;19920;-62
2022/06/21 10:45:54;;;;;;;;;;;21.00;90.10;;;;;;5085558;28;19912;-63
2022/06/21 10:48:38;;;;;;;;;;;21.10;90.30;;;;;;5087847;28;20334;-62
2022/06/21 10:51:07;;;;;;;;;;;21.20;91.00;;;;;;5067915;28;19934;-62
2022/06/21 10:53:51;;;;;;;;;;;21.20;90.30;;;;;;5084051;28;20006;-62
2022/06/21 10:59:26;;;;;;;;;;;21.30;90.00;;;;;;5082845;28;19989;-62
2022/06/21 11:02:08;;;;;;;;;;;21.30;90.00;;;;;;5083994;28;19919;-63
2022/06/21 11:04:34;;;;;;;;;;;21.30;89.20;;;;;;5084408;28;19916;-63
2022/06/21 11:07:32;;;;;;;;;;;21.60;87.50;;;;;;5086522;28;20293;-63
2022/06/21 11:10:01;;;;;;;;;;;21.90;86.50;;;;;;5037359;28;20300;-61
2022/06/21 11:12:54;;;;;;;;;;;22.20;86.10;;;;;;5086504;28;19911;-63
2022/06/21 11:15:31;;;;;;;;;;;22.50;85.60;;;;;;5090231;28;19924;-62
2022/06/21 11:17:57;;;;;;;;;;;22.70;84.60;;;;;;5082921;28;19920;-63
2022/06/21 11:20:24;;;;;;;;;;;23.00;84.60;;;;;;5086127;28;19998;-62
2022/06/21 11:22:55;;;;;;;;;;;22.70;81.80;;;;;;5091576;28;19924;-62
2022/06/21 11:25:24;;;;;;;;;;;22.60;82.30;;;;;;5097779;28;19904;-63
2022/06/21 11:27:58;;;;;;;;;;;22.50;81.70;;;;;;5074810;28;19957;-62
2022/06/21 11:30:40;;;;;;;;;;;22.20;81.50;;;;;;5087188;28;19920;-63
2022/06/21 11:33:18;;;;;;;;;;;22.10;81.30;;;;;;5096134;28;19919;-62
2022/06/21 11:35:49;;;;;;;;;;;22.20;81.50;;;;;;5089056;28;20496;-62
2022/06/21 11:38:17;;;;;;;;;;;22.20;81.40;;;;;;5090070;28;20314;-61
2022/06/21 11:40:46;;;;;;;;;;;22.30;82.20;;;;;;5091785;28;20324;-63
2022/06/21 11:43:14;;;;;;;;;;;22.30;81.70;;;;;;5088287;28;19939;-61
2022/06/21 11:45:48;;;;;;;;;;;22.40;82.00;;;;;;5081173;28;19947;-62
2022/06/21 11:48:23;;;;;;;;;;;22.50;81.80;;;;;;5063321;28;19959;-63
2022/06/21 11:50:58;;;;;;;;;;;22.60;80.10;;;;;;5063911;28;19920;-62
2022/06/21 11:53:44;;;;;;;;;;;22.50;81.40;;;;;;5082566;28;19959;-62
2022/06/21 11:56:15;;;;;;;;;;;22.50;81.00;;;;;;5086259;28;19985;-62
2022/06/21 11:59:00;;;;;;;;;;;22.70;79.60;;;;;;5069265;28;19916;-62
2022/06/21 12:01:28;;;;;;;;;;;22.70;78.40;;;;;;5088042;28;19920;-63
2022/06/21 12:04:12;;;;;;;;;;;22.60;80.50;;;;;;5087736;28;19995;-63
2022/06/21 12:06:48;;;;;;;;;;;22.50;82.40;;;;;;5085836;28;19916;-64
2022/06/21 12:09:19;;;;;;;;;;;22.50;82.40;;;;;;5086990;28;20246;-63
2022/06/21 12:12:00;;;;;;;;;;;22.40;82.70;;;;;;5087058;28;19918;-63
2022/06/21 12:14:44;;;;;;;;;;;22.30;82.30;;;;;;5085631;28;19995;-63
2022/06/21 12:17:21;;;;;;;;;;;22.40;82.50;;;;;;5082202;28;20385;-63
2022/06/21 12:19:53;;;;;;;;;;;22.60;82.40;;;;;;5086230;28;20007;-63
2022/06/21 12:22:33;;;;;;;;;;;22.90;81.10;;;;;;5088674;28;19916;-63
2022/06/21 12:24:59;;;;;;;;;;;23.10;80.50;;;;;;5083908;28;20350;-62
2022/06/21 12:27:25;;;;;;;;;;;23.10;79.50;;;;;;5086842;28;20042;-63
2022/06/21 12:29:55;;;;;;;;;;;23.20;79.00;;;;;;5069941;28;20010;-63
2022/06/21 12:32:22;;;;;;;;;;;23.30;78.70;;;;;;5084017;28;19916;-63
2022/06/21 12:35:11;;;;;;;;;;;23.40;78.00;;;;;;5087311;28;19998;-63
2022/06/21 12:37:40;;;;;;;;;;;23.40;78.30;;;;;;5073566;28;19921;-63
2022/06/21 12:40:24;;;;;;;;;;;23.20;78.90;;;;;;5081384;28;20001;-63
2022/06/21 12:43:08;;;;;;;;;;;23.40;78.80;;;;;;5084479;28;19919;-63
2022/06/21 12:45:57;;;;;;;;;;;23.60;78.10;;;;;;5084364;28;19912;-64
2022/06/21 12:48:28;;;;;;;;;;;23.40;78.40;;;;;;5074058;28;20354;-63
2022/06/21 12:50:59;;;;;;;;;;;23.30;78.40;;;;;;5086232;28;19924;-63
2022/06/21 12:53:47;;;;;;;;;;;23.20;78.30;;;;;;5083017;28;19958;-62
2022/06/21 12:56:31;;;;;;;;;;;23.20;78.60;;;;;;5088972;28;19920;-64
2022/06/21 12:59:16;;;;;;;;;;;23.10;79.10;;;;;;5084241;28;19917;-63
2022/06/21 13:01:41;;;;;;;;;;;23.30;79.50;;;;;;5086819;28;19990;-63
2022/06/21 13:04:25;;;;;;;;;;;23.30;78.20;;;;;;5084037;28;20015;-63
2022/06/21 13:07:09;;;;;;;;;;;23.30;79.10;;;;;;5082673;28;20354;-62
2022/06/21 13:09:59;;;;;;;;;;;23.40;78.00;;;;;;5082873;28;19923;-63
2022/06/21 13:12:37;;;;;;;;;;;23.40;78.20;;;;;;5059544;28;20369;-63
2022/06/21 13:15:08;;;;;;;;;;;23.60;77.50;;;;;;5082074;28;20435;-63
2022/06/21 13:17:50;;;;;;;;;;;23.80;77.30;;;;;;5085023;28;20413;-63
2022/06/21 13:20:15;;;;;;;;;;;23.90;76.90;;;;;;5064837;28;19985;-62
2022/06/21 13:22:44;;;;;;;;;;;23.80;77.60;;;;;;5087229;28;19924;-63
2022/06/21 13:25:16;;;;;;;;;;;23.60;78.20;;;;;;5085592;28;19969;-63
2022/06/21 13:27:44;;;;;;;;;;;23.70;77.60;;;;;;5071725;28;19916;-63
2022/06/21 13:30:14;;;;;;;;;;;23.70;77.30;;;;;;5089481;28;19920;-63
2022/06/21 13:33:03;;;;;;;;;;;23.60;77.60;;;;;;5086046;28;19919;-63
2022/06/21 13:35:39;;;;;;;;;;;23.60;77.10;;;;;;5088267;28;19927;-64
2022/06/21 13:38:13;;;;;;;;;;;23.70;77.20;;;;;;5090486;28;19924;-63
2022/06/21 13:40:44;;;;;;;;;;;23.70;77.50;;;;;;5089151;28;20346;-64
2022/06/21 13:43:14;;;;;;;;;;;23.70;77.60;;;;;;5088505;28;20136;-64
2022/06/21 13:45:59;;;;;;;;;;;23.70;77.10;;;;;;5087444;28;19919;-63
2022/06/21 13:48:32;;;;;;;;;;;23.80;76.80;;;;;;5081818;28;20007;-63
2022/06/21 13:51:15;;;;;;;;;;;23.80;74.90;;;;;;5086208;28;19912;-62
2022/06/21 13:53:45;;;;;;;;;;;23.80;74.80;;;;;;5085879;28;20331;-62
2022/06/21 13:56:14;;;;;;;;;;;23.80;75.80;;;;;;5086183;28;20377;-64
2022/06/21 13:58:42;;;;;;;;;;;23.80;75.30;;;;;;5088016;28;19916;-63
2022/06/21 14:01:12;;;;;;;;;;;23.70;76.10;;;;;;5088616;28;19927;-62
2022/06/21 14:03:46;;;;;;;;;;;23.80;76.40;;;;;;5083676;28;19916;-62
2022/06/21 14:06:19;;;;;;;;;;;23.90;76.60;;;;;;5085806;28;20454;-62
2022/06/21 14:08:50;;;;;;;;;;;23.90;77.10;;;;;;5089259;28;19912;-62
2022/06/21 14:11:26;;;;;;;;;;;24.00;77.60;;;;;;5087500;28;20341;-63
2022/06/21 14:13:54;;;;;;;;;;;23.80;77.60;;;;;;5090328;28;19960;-64
2022/06/21 14:16:25;;;;;;;;;;;23.80;77.30;;;;;;5083801;28;19920;-63
2022/06/21 14:18:51;;;;;;;;;;;24.10;77.20;;;;;;5066903;28;20369;-64
2022/06/21 14:21:20;;;;;;;;;;;24.40;76.00;;;;;;5089622;28;20020;-62
2022/06/21 14:23:52;;;;;;;;;;;24.60;75.20;;;;;;5085698;28;19938;-63
2022/06/21 14:26:26;;;;;;;;;;;24.90;75.70;;;;;;5087821;28;20330;-63
2022/06/21 14:28:59;;;;;;;;;;;24.60;75.90;;;;;;5086605;28;19993;-61
2022/06/21 14:31:25;;;;;;;;;;;24.40;77.20;;;;;;5089341;28;19912;-63
2022/06/21 14:34:00;;;;;;;;;;;24.60;77.50;;;;;;5088780;28;20008;-63
2022/06/21 14:36:36;;;;;;;;;;;24.70;76.00;;;;;;5087962;28;19988;-63
2022/06/21 14:39:09;;;;;;;;;;;25.10;73.90;;;;;;5092693;28;20003;-63
2022/06/21 14:41:36;;;;;;;;;;;26.40;71.90;;;;;;5088789;28;19924;-62
2022/06/21 14:44:22;;;;;;;;;;;28.20;68.40;;;;;;5089199;28;19991;-62
2022/06/21 14:46:52;;;;;;;;;;;28.90;67.00;;;;;;5089508;28;20349;-62
2022/06/21 14:49:20;;;;;;;;;;;30.10;63.90;;;;;;5096082;28;20284;-63
2022/06/21 14:52:04;;;;;;;;;;;30.90;63.00;;;;;;5082992;28;19917;-63
2022/06/21 14:54:36;;;;;;;;;;;31.10;59.60;;;;;;5096666;28;19951;-63
2022/06/21 14:57:07;;;;;;;;;;;30.90;58.50;;;;;;5076123;28;20292;-63
2022/06/21 14:59:47;;;;;;;;;;;31.00;59.20;;;;;;5089875;28;20336;-62
2022/06/21 15:02:19;;;;;;;;;;;32.80;56.20;;;;;;5066783;28;19969;-63
2022/06/21 15:04:47;;;;;;;;;;;33.10;55.30;;;;;;5082650;28;20388;-63
2022/06/21 15:07:24;;;;;;;;;;;33.30;54.30;;;;;;5066461;28;19957;-64